createdAt,value
2023-03-22T00:00:58.701Z,85.40
2023-03-22T00:03:29.762Z,85.30
2023-03-22T00:06:02.433Z,85.30
2023-03-22T00:08:34.257Z,84.40
2023-03-22T00:11:05.246Z,82.80
2023-03-22T00:13:38.506Z,83.10
2023-03-22T00:16:09.876Z,83.10
2023-03-22T00:18:43.047Z,83.00
2023-03-22T00:21:19.182Z,82.80
2023-03-22T00:23:51.037Z,82.10
2023-03-22T00:26:21.784Z,81.80
2023-03-22T00:28:52.569Z,81.60
2023-03-22T00:31:23.860Z,82.40
2023-03-22T00:33:55.816Z,82.60
2023-03-22T00:36:26.615Z,83.80
2023-03-22T00:38:57.554Z,85.40
2023-03-22T00:41:29.653Z,86.60
2023-03-22T00:46:47.777Z,83.50
2023-03-22T00:49:18.560Z,81.10
2023-03-22T00:51:52.316Z,81.20
2023-03-22T00:54:24.986Z,80.60
2023-03-22T00:56:55.996Z,79.60
2023-03-22T00:59:26.976Z,79.10
2023-03-22T01:02:00.544Z,79.60
2023-03-22T01:04:40.095Z,79.90
2023-03-22T01:07:23.692Z,79.70
2023-03-22T01:09:57.138Z,79.40
2023-03-22T01:12:30.097Z,79.10
2023-03-22T01:15:00.747Z,79.30
2023-03-22T01:17:33.059Z,79.60
2023-03-22T01:20:03.793Z,80.10
2023-03-22T01:22:34.467Z,81.70
2023-03-22T01:25:05.548Z,80.30
2023-03-22T01:27:36.270Z,80.80
2023-03-22T01:30:08.809Z,81.50
2023-03-22T01:32:40.409Z,81.30
2023-03-22T01:35:12.358Z,81.50
2023-03-22T01:37:45.180Z,81.90
2023-03-22T01:40:18.442Z,81.90
2023-03-22T01:42:49.198Z,82.00
2023-03-22T01:45:26.014Z,81.80
2023-03-22T01:48:06.657Z,81.50
2023-03-22T01:51:30.174Z,80.70
2023-03-22T01:53:58.056Z,81.10
2023-03-22T01:56:32.989Z,81.20
2023-03-22T01:59:05.241Z,81.20
2023-03-22T02:01:37.583Z,81.20
2023-03-22T02:04:10.232Z,81.50
2023-03-22T02:06:41.544Z,81.50
2023-03-22T02:09:14.595Z,81.20
2023-03-22T02:11:49.024Z,81.40
2023-03-22T02:14:50.092Z,82.10
2023-03-22T02:17:53.292Z,82.00
2023-03-22T02:20:47.554Z,81.90
2023-03-22T02:23:29.318Z,82.50
2023-03-22T02:26:31.174Z,82.10
2023-03-22T02:29:36.839Z,82.10
2023-03-22T02:32:25.846Z,81.80
2023-03-22T02:35:27.713Z,81.70
2023-03-22T02:38:31.976Z,82.00
2023-03-22T02:41:15.625Z,81.70
2023-03-22T02:44:09.195Z,81.50
2023-03-22T02:47:07.286Z,81.70
2023-03-22T02:49:51.486Z,81.00
2023-03-22T02:52:47.204Z,80.80
2023-03-22T02:55:34.194Z,80.10
2023-03-22T02:58:14.701Z,80.10
2023-03-22T03:00:48.601Z,80.30
2023-03-22T03:03:21.340Z,80.40
2023-03-22T03:05:58.592Z,79.90
2023-03-22T03:08:33.900Z,80.10
2023-03-22T03:11:07.959Z,80.20
2023-03-22T03:13:38.674Z,79.20
2023-03-22T03:16:19.719Z,78.20
2023-03-22T03:19:09.916Z,77.70
2023-03-22T03:21:56.661Z,77.30
2023-03-22T03:24:46.455Z,77.10
2023-03-22T03:27:25.489Z,76.90
2023-03-22T03:30:18.879Z,75.60
2023-03-22T03:33:19.991Z,75.50
2023-03-22T03:35:55.954Z,75.60
2023-03-22T03:38:37.264Z,74.80
2023-03-22T03:41:12.411Z,75.30
2023-03-22T03:43:44.154Z,75.50
2023-03-22T03:46:16.728Z,75.00
2023-03-22T03:48:51.154Z,74.70
2023-03-22T03:51:22.166Z,74.60
2023-03-22T03:53:52.932Z,74.60
2023-03-22T03:56:23.717Z,74.80
2023-03-22T03:58:54.646Z,74.00
2023-03-22T04:01:26.324Z,74.40
2023-03-22T04:03:57.408Z,75.10
2023-03-22T04:06:28.387Z,75.20
2023-03-22T04:09:00.143Z,75.60
2023-03-22T04:11:31.630Z,75.20
2023-03-22T04:14:03.447Z,75.50
2023-03-22T04:16:34.350Z,74.50
2023-03-22T04:19:05.926Z,74.80
2023-03-22T04:21:37.710Z,75.60
2023-03-22T04:24:08.889Z,75.50
2023-03-22T04:26:39.719Z,75.90
2023-03-22T04:29:11.871Z,76.40
2023-03-22T04:31:42.637Z,77.00
2023-03-22T04:34:13.615Z,76.60
2023-03-22T04:36:46.222Z,75.80
2023-03-22T04:39:17.285Z,76.00
2023-03-22T04:41:48.354Z,75.70
2023-03-22T04:44:20.743Z,75.70
2023-03-22T04:46:52.586Z,76.00
2023-03-22T04:49:24.191Z,76.00
2023-03-22T04:51:54.937Z,75.70
2023-03-22T04:54:29.815Z,75.80
2023-03-22T04:57:00.486Z,76.30
2023-03-22T04:59:31.177Z,76.20
2023-03-22T05:02:01.961Z,76.20
2023-03-22T05:04:33.737Z,76.00
2023-03-22T05:07:04.875Z,76.20
2023-03-22T05:09:36.434Z,76.10
2023-03-22T05:12:08.139Z,76.50
2023-03-22T05:14:39.440Z,76.70
2023-03-22T05:17:10.435Z,76.80
2023-03-22T05:19:41.298Z,76.50
2023-03-22T05:22:14.187Z,76.10
2023-03-22T05:24:47.429Z,76.30
2023-03-22T05:27:17.742Z,76.70
2023-03-22T05:29:49.095Z,76.80
2023-03-22T05:32:20.470Z,76.50
2023-03-22T05:34:52.205Z,76.50
2023-03-22T05:37:24.309Z,77.10
2023-03-22T05:39:55.051Z,77.10
2023-03-22T05:42:25.702Z,77.40
2023-03-22T05:44:56.417Z,77.20
2023-03-22T05:47:27.279Z,77.60
2023-03-22T05:50:00.164Z,77.70
2023-03-22T05:52:34.517Z,77.60
2023-03-22T05:55:05.367Z,77.40
2023-03-22T05:57:36.345Z,77.60
2023-03-22T06:00:20.643Z,77.80
2023-03-22T06:02:55.084Z,77.50
2023-03-22T06:05:26.661Z,77.40
2023-03-22T06:07:59.727Z,77.60
2023-03-22T06:10:30.928Z,77.40
2023-03-22T06:13:08.438Z,77.60
2023-03-22T06:15:39.706Z,78.10
2023-03-22T06:18:18.855Z,78.20
2023-03-22T06:20:49.518Z,78.80
2023-03-22T06:23:20.187Z,78.90
2023-03-22T06:25:51.604Z,78.80
2023-03-22T06:28:23.308Z,78.70
2023-03-22T06:30:57.570Z,78.70
2023-03-22T06:33:29.265Z,79.20
2023-03-22T06:36:04.750Z,80.10
2023-03-22T06:38:45.334Z,79.00
2023-03-22T06:41:23.116Z,78.80
2023-03-22T06:43:57.744Z,78.60
2023-03-22T06:46:32.440Z,78.80
2023-03-22T06:49:17.112Z,79.20
2023-03-22T06:51:49.220Z,79.00
2023-03-22T06:54:23.403Z,79.30
2023-03-22T06:56:59.827Z,79.70
2023-03-22T06:59:34.782Z,79.70
2023-03-22T07:02:16.659Z,79.80
2023-03-22T07:04:54.295Z,80.10
2023-03-22T07:07:26.179Z,80.70
2023-03-22T07:09:57.122Z,81.00
2023-03-22T07:12:29.200Z,81.10
2023-03-22T07:15:01.084Z,81.20
2023-03-22T07:17:32.248Z,81.40
2023-03-22T07:20:09.397Z,81.40
2023-03-22T07:22:40.036Z,81.70
2023-03-22T07:25:12.517Z,81.90
2023-03-22T07:27:48.570Z,81.90
2023-03-22T07:30:21.441Z,82.10
2023-03-22T07:32:54.512Z,82.40
2023-03-22T07:35:27.202Z,82.40
2023-03-22T07:38:01.246Z,82.30
2023-03-22T07:40:34.049Z,82.70
2023-03-22T07:43:05.613Z,82.90
2023-03-22T07:48:22.747Z,83.20
2023-03-22T07:50:58.825Z,83.30
2023-03-22T07:53:35.090Z,83.30
2023-03-22T07:56:09.054Z,83.30
2023-03-22T07:58:40.609Z,83.30
2023-03-22T08:01:13.517Z,83.50
2023-03-22T08:03:45.264Z,83.40
2023-03-22T08:06:18.990Z,83.50
2023-03-22T08:08:50.311Z,83.30
2023-03-22T08:11:24.605Z,83.30
2023-03-22T08:13:57.895Z,83.40
2023-03-22T08:16:29.053Z,83.50
2023-03-22T08:18:59.831Z,83.80
2023-03-22T08:21:32.634Z,84.00
2023-03-22T08:24:05.070Z,84.40
2023-03-22T08:26:35.545Z,84.80
2023-03-22T08:29:09.238Z,85.10
2023-03-22T08:31:43.122Z,85.40
2023-03-22T08:34:13.551Z,85.70
2023-03-22T08:36:44.196Z,85.80
2023-03-22T08:39:16.585Z,86.10
2023-03-22T08:41:46.936Z,86.60
2023-03-22T08:44:17.254Z,86.90
2023-03-22T08:46:47.489Z,86.70
2023-03-22T08:49:18.444Z,87.00
2023-03-22T08:51:50.081Z,86.80
2023-03-22T08:54:21.958Z,87.40
2023-03-22T08:56:52.730Z,87.90
2023-03-22T08:59:23.478Z,88.00
2023-03-22T09:01:54.046Z,88.20
2023-03-22T09:04:24.470Z,88.50
2023-03-22T09:06:54.937Z,88.50
2023-03-22T09:09:25.221Z,88.80
2023-03-22T09:11:59.941Z,88.80
2023-03-22T09:14:30.436Z,88.80
2023-03-22T09:17:00.844Z,88.90
2023-03-22T09:19:31.884Z,88.90
2023-03-22T09:22:02.728Z,89.00
2023-03-22T09:24:33.214Z,89.40
2023-03-22T09:27:03.498Z,89.90
2023-03-22T09:29:34.060Z,90.00
2023-03-22T09:32:04.277Z,90.10
2023-03-22T09:34:34.654Z,90.10
2023-03-22T09:37:06.260Z,90.10
2023-03-22T09:39:40.467Z,90.30
2023-03-22T09:42:20.357Z,90.40
2023-03-22T09:44:53.085Z,90.40
2023-03-22T09:47:44.699Z,90.50
2023-03-22T09:50:27.940Z,90.50
2023-03-22T09:52:58.571Z,90.40
2023-03-22T09:55:37.748Z,90.20
2023-03-22T09:58:22.082Z,90.10
2023-03-22T10:01:30.009Z,90.20
2023-03-22T10:04:28.417Z,90.50
2023-03-22T10:07:49.116Z,90.60
2023-03-22T10:10:25.872Z,90.30
2023-03-22T10:13:18.530Z,90.20
2023-03-22T10:15:54.517Z,90.40
2023-03-22T10:18:27.147Z,90.60
2023-03-22T10:21:08.536Z,90.60
2023-03-22T10:23:51.544Z,90.80
2023-03-22T10:26:28.138Z,91.00
2023-03-22T10:29:05.398Z,90.60
2023-03-22T10:31:37.115Z,90.60
2023-03-22T10:34:23.154Z,90.70
2023-03-22T10:36:55.209Z,90.80
2023-03-22T10:39:40.224Z,90.90
2023-03-22T10:42:20.786Z,90.80
2023-03-22T10:44:51.309Z,90.90
2023-03-22T10:47:34.926Z,90.90
2023-03-22T10:50:10.846Z,90.90
2023-03-22T10:52:48.342Z,91.20
2023-03-22T10:55:19.812Z,91.20
2023-03-22T10:58:01.913Z,91.30
2023-03-22T11:00:34.005Z,91.50
2023-03-22T11:03:04.959Z,91.70
2023-03-22T11:05:35.817Z,91.60
2023-03-22T11:08:10.115Z,91.80
2023-03-22T11:10:45.966Z,91.90
2023-03-22T11:13:26.847Z,92.00
2023-03-22T11:16:05.468Z,92.00
2023-03-22T11:18:38.797Z,92.00
2023-03-22T11:21:17.019Z,91.90
2023-03-22T11:24:06.059Z,92.00
2023-03-22T11:26:41.544Z,92.00
2023-03-22T11:29:22.676Z,91.90
2023-03-22T11:32:02.331Z,92.00
2023-03-22T11:34:33.820Z,92.00
2023-03-22T11:37:09.893Z,91.90
2023-03-22T11:39:48.016Z,91.80
2023-03-22T11:42:23.828Z,91.80
2023-03-22T11:44:57.792Z,91.50
2023-03-22T11:47:33.038Z,91.60
2023-03-22T11:50:09.520Z,91.40
2023-03-22T11:52:40.915Z,91.40
2023-03-22T11:55:16.244Z,91.30
2023-03-22T11:57:46.542Z,91.30
2023-03-22T12:00:23.259Z,91.40
2023-03-22T12:03:02.151Z,91.20
2023-03-22T12:05:41.029Z,91.30
2023-03-22T12:08:26.353Z,91.40
2023-03-22T12:11:15.671Z,91.20
2023-03-22T12:13:52.366Z,91.50
2023-03-22T12:16:27.300Z,91.50
2023-03-22T12:19:34.526Z,91.60
2023-03-22T12:22:05.698Z,91.70
2023-03-22T12:24:36.742Z,91.80
2023-03-22T12:27:23.544Z,92.00
2023-03-22T12:30:10.208Z,91.60
2023-03-22T12:33:09.603Z,91.60
2023-03-22T12:35:45.662Z,91.70
2023-03-22T12:38:31.573Z,91.80
2023-03-22T12:41:08.951Z,92.00
2023-03-22T12:43:43.093Z,92.00
2023-03-22T12:46:32.043Z,92.10
2023-03-22T12:49:28.585Z,92.10
2023-03-22T12:52:15.229Z,92.30
2023-03-22T12:54:46.948Z,92.30
2023-03-22T12:57:19.066Z,92.30
2023-03-22T12:59:54.358Z,92.20
2023-03-22T13:02:35.295Z,92.20
2023-03-22T13:05:11.929Z,92.40
2023-03-22T13:07:51.953Z,92.10
2023-03-22T13:10:39.243Z,92.00
2023-03-22T13:13:25.166Z,91.80
2023-03-22T13:16:06.753Z,91.90
2023-03-22T13:19:00.253Z,92.40
2023-03-22T13:21:35.405Z,92.00
2023-03-22T13:24:26.315Z,92.10
2023-03-22T13:26:58.129Z,92.20
2023-03-22T13:29:40.805Z,92.10
2023-03-22T13:32:39.216Z,92.30
2023-03-22T13:35:25.346Z,92.50
2023-03-22T13:37:58.535Z,92.30
2023-03-22T13:40:38.424Z,91.90
2023-03-22T13:43:16.524Z,92.20
2023-03-22T13:46:23.932Z,92.00
2023-03-22T13:48:54.624Z,92.00
2023-03-22T13:51:25.172Z,92.00
2023-03-22T13:54:18.780Z,92.00
2023-03-22T13:57:01.866Z,91.90
2023-03-22T14:00:12.064Z,91.90
2023-03-22T14:02:45.442Z,92.00
2023-03-22T14:05:24.364Z,92.00
2023-03-22T14:08:01.413Z,91.80
2023-03-22T14:10:43.214Z,91.60
2023-03-22T14:13:46.049Z,91.80
2023-03-22T14:16:46.050Z,91.90
2023-03-22T14:19:28.916Z,91.70
